createdAt,value
2022-11-04T00:00:04.484Z,9.44
2022-11-04T00:01:04.480Z,9.43
2022-11-04T00:02:04.571Z,9.41
2022-11-04T00:03:04.396Z,9.40
2022-11-04T00:04:04.383Z,9.39
2022-11-04T00:05:04.375Z,9.37
2022-11-04T00:06:07.354Z,9.36
2022-11-04T00:07:04.377Z,9.37
2022-11-04T00:08:04.343Z,9.36
2022-11-04T00:09:04.331Z,9.40
2022-11-04T00:10:04.314Z,9.44
2022-11-04T00:11:04.332Z,9.46
2022-11-04T00:12:04.305Z,9.46
2022-11-04T00:13:04.324Z,9.46
2022-11-04T00:14:04.289Z,9.44
2022-11-04T00:15:04.270Z,9.46
2022-11-04T00:16:04.259Z,9.47
2022-11-04T00:17:04.248Z,9.46
2022-11-04T00:18:04.247Z,9.43
2022-11-04T00:19:04.217Z,9.40
2022-11-04T00:21:07.222Z,9.34
2022-11-04T00:22:04.250Z,9.32
2022-11-04T00:23:04.185Z,9.28
2022-11-04T00:24:04.172Z,9.25
2022-11-04T00:25:04.157Z,9.26
2022-11-04T00:26:04.149Z,9.25
2022-11-04T00:27:04.138Z,9.23
2022-11-04T00:28:04.118Z,9.22
2022-11-04T00:29:04.125Z,9.21
2022-11-04T00:30:04.110Z,9.21
2022-11-04T00:31:04.104Z,9.21
2022-11-04T00:32:04.121Z,9.18
2022-11-04T00:33:04.110Z,9.18
2022-11-04T00:34:04.068Z,9.14
2022-11-04T00:35:04.062Z,9.13
2022-11-04T00:36:07.040Z,9.13
2022-11-04T00:37:04.040Z,9.13
2022-11-04T00:38:04.021Z,9.16
2022-11-04T00:39:04.013Z,9.22
2022-11-04T00:40:04.026Z,9.25
2022-11-04T00:41:03.991Z,9.28
2022-11-04T00:42:03.983Z,9.29
2022-11-04T00:43:03.973Z,9.29
2022-11-04T00:44:03.993Z,9.32
2022-11-04T00:46:03.933Z,9.32
2022-11-04T00:47:03.923Z,9.26
2022-11-04T00:48:03.928Z,9.28
2022-11-04T00:49:03.917Z,9.26
2022-11-04T00:50:03.902Z,9.26
2022-11-04T00:51:06.913Z,9.26
2022-11-04T00:52:03.894Z,9.25
2022-11-04T00:53:03.865Z,9.25
2022-11-04T00:54:03.862Z,9.23
2022-11-04T00:55:03.926Z,9.22
2022-11-04T00:56:03.836Z,9.19
2022-11-04T00:57:03.831Z,9.19
2022-11-04T00:58:03.814Z,9.19
2022-11-04T00:59:03.801Z,9.21
2022-11-04T01:00:03.833Z,9.23
2022-11-04T01:01:03.811Z,9.23
2022-11-04T01:02:03.874Z,9.25
2022-11-04T01:03:03.768Z,9.25
2022-11-04T01:04:03.752Z,9.26
2022-11-04T01:05:03.748Z,9.31
2022-11-04T01:06:06.731Z,9.32
2022-11-04T01:07:03.744Z,9.32
2022-11-04T01:08:03.739Z,9.31
2022-11-04T01:09:03.709Z,9.28
2022-11-04T01:10:03.690Z,9.28
2022-11-04T01:11:03.671Z,9.26
2022-11-04T01:12:03.682Z,9.26
2022-11-04T01:13:03.657Z,9.25
2022-11-04T01:14:03.642Z,9.23
2022-11-04T01:15:03.636Z,9.19
2022-11-04T01:16:03.636Z,9.19
2022-11-04T01:17:03.620Z,9.18
2022-11-04T01:18:03.614Z,9.16
2022-11-04T01:19:03.623Z,9.14
2022-11-04T01:20:03.600Z,9.13
2022-11-04T01:22:03.576Z,9.08
2022-11-04T01:23:03.567Z,9.06
2022-11-04T01:24:03.547Z,9.02
2022-11-04T01:25:03.534Z,9.03
2022-11-04T01:26:03.526Z,9.02
2022-11-04T01:27:03.515Z,9.00
2022-11-04T01:28:03.502Z,8.99
2022-11-04T01:29:03.490Z,8.97
2022-11-04T01:30:03.522Z,8.95
2022-11-04T01:31:03.475Z,8.97
2022-11-04T01:32:03.467Z,8.97
2022-11-04T01:33:03.454Z,8.92
2022-11-04T01:34:03.446Z,8.92
2022-11-04T01:35:03.426Z,8.95
2022-11-04T01:36:06.404Z,8.97
2022-11-04T01:37:03.439Z,9.06
2022-11-04T01:38:03.397Z,9.14
2022-11-04T01:39:03.387Z,9.16
2022-11-04T01:40:03.383Z,9.19
2022-11-04T01:41:03.391Z,9.19
2022-11-04T01:43:03.373Z,9.18
2022-11-04T01:44:03.328Z,9.18
2022-11-04T01:45:03.352Z,9.14
2022-11-04T01:46:03.316Z,9.13
2022-11-04T01:47:03.297Z,9.10
2022-11-04T01:48:03.297Z,9.04
2022-11-04T01:49:03.290Z,8.95
2022-11-04T01:50:03.378Z,8.92
2022-11-04T01:51:06.260Z,8.88
2022-11-04T01:52:03.273Z,8.85
2022-11-04T01:53:03.240Z,8.82
2022-11-04T01:54:03.230Z,8.74
2022-11-04T01:55:03.237Z,8.73
2022-11-04T01:56:03.241Z,8.66
2022-11-04T01:57:03.198Z,8.63
2022-11-04T01:58:03.190Z,8.58
2022-11-04T01:59:03.181Z,8.60
2022-11-04T02:00:03.168Z,8.60
2022-11-04T02:01:03.286Z,8.60
2022-11-04T02:02:03.290Z,8.61
2022-11-04T02:03:03.129Z,8.60
2022-11-04T02:04:03.122Z,8.56
2022-11-04T02:05:03.115Z,8.58
2022-11-04T02:06:06.191Z,8.58
2022-11-04T02:07:03.123Z,8.60
2022-11-04T02:08:03.096Z,8.55
2022-11-04T02:09:03.122Z,8.60
2022-11-04T02:10:03.074Z,8.60
2022-11-04T02:11:03.085Z,8.63
2022-11-04T02:12:03.051Z,8.69
2022-11-04T02:13:03.032Z,8.73
2022-11-04T02:14:03.026Z,8.76
2022-11-04T02:15:03.003Z,8.81
2022-11-04T02:16:03.021Z,8.87
2022-11-04T02:17:02.985Z,8.89
2022-11-04T02:18:02.986Z,8.91
2022-11-04T02:19:02.965Z,8.95
2022-11-04T02:20:02.953Z,8.95
2022-11-04T02:21:05.943Z,8.94
2022-11-04T02:22:02.961Z,8.97
2022-11-04T02:23:02.929Z,8.97
2022-11-04T02:24:02.955Z,8.94
2022-11-04T02:25:02.904Z,8.94
2022-11-04T02:26:02.895Z,8.94
2022-11-04T02:27:02.888Z,8.92
2022-11-04T02:28:02.867Z,8.91
2022-11-04T02:29:02.857Z,8.92
2022-11-04T02:30:02.909Z,8.94
2022-11-04T02:31:02.838Z,8.95
2022-11-04T02:32:02.837Z,8.95
2022-11-04T02:33:02.822Z,8.97
2022-11-04T02:34:02.821Z,8.97
2022-11-04T02:35:02.799Z,8.97
2022-11-04T02:36:05.890Z,8.99
2022-11-04T02:37:02.795Z,8.99
2022-11-04T02:38:02.771Z,8.97
2022-11-04T02:39:02.757Z,8.97
2022-11-04T02:40:02.750Z,8.95
2022-11-04T02:41:02.739Z,8.97
2022-11-04T02:42:02.753Z,8.95
2022-11-04T02:43:02.730Z,8.94
2022-11-04T02:44:02.721Z,8.95
2022-11-04T02:45:03.816Z,8.95
2022-11-04T02:46:02.708Z,8.97
2022-11-04T02:47:02.691Z,8.95
2022-11-04T02:48:02.704Z,8.99
2022-11-04T02:49:03.713Z,8.94
2022-11-04T02:50:02.651Z,8.97
2022-11-04T02:51:05.631Z,9.02
2022-11-04T02:52:02.633Z,9.04
2022-11-04T02:53:02.632Z,9.04
2022-11-04T02:54:02.593Z,9.04
2022-11-04T02:55:02.594Z,9.06
2022-11-04T02:56:02.583Z,9.06
2022-11-04T02:57:02.573Z,9.06
2022-11-04T02:58:02.567Z,9.04
2022-11-04T02:59:02.566Z,9.03
2022-11-04T03:00:02.534Z,9.03
2022-11-04T03:01:02.682Z,9.03
2022-11-04T03:02:02.674Z,9.04
2022-11-04T03:03:02.541Z,9.04
2022-11-04T03:04:02.730Z,9.06
2022-11-04T03:05:02.486Z,9.04
2022-11-04T03:06:05.475Z,9.06
2022-11-04T03:07:02.527Z,9.04
2022-11-04T03:08:02.626Z,9.04
2022-11-04T03:09:02.445Z,9.04
2022-11-04T03:10:02.440Z,9.04
2022-11-04T03:11:02.424Z,9.03
2022-11-04T03:12:02.417Z,9.03
2022-11-04T03:13:02.427Z,9.03
2022-11-04T03:14:02.394Z,9.02
2022-11-04T03:15:02.389Z,9.03
2022-11-04T03:16:02.379Z,9.04
2022-11-04T03:17:02.368Z,9.06
2022-11-04T03:18:02.370Z,9.06
2022-11-04T03:19:02.342Z,9.06
2022-11-04T03:20:02.353Z,9.06
2022-11-04T03:21:05.320Z,9.06
2022-11-04T03:22:02.321Z,9.08
2022-11-04T03:23:02.318Z,9.06
2022-11-04T03:24:02.298Z,9.03
2022-11-04T03:25:02.292Z,9.04
2022-11-04T03:26:02.257Z,9.03
2022-11-04T03:27:02.259Z,9.04
2022-11-04T03:28:02.275Z,9.03
2022-11-04T03:29:02.231Z,9.03
2022-11-04T03:30:02.305Z,9.03
2022-11-04T03:31:02.220Z,9.03
2022-11-04T03:32:02.206Z,9.02
2022-11-04T03:33:02.212Z,9.00
2022-11-04T03:34:02.175Z,9.02
2022-11-04T03:35:02.181Z,9.03
2022-11-04T03:36:05.161Z,9.03
2022-11-04T03:37:02.170Z,9.06
2022-11-04T03:38:02.187Z,9.06
2022-11-04T03:39:02.161Z,9.04
2022-11-04T03:40:02.125Z,9.08
2022-11-04T03:41:02.110Z,9.06
2022-11-04T03:42:02.094Z,9.08
2022-11-04T03:43:02.082Z,9.06
2022-11-04T03:44:02.080Z,9.06
2022-11-04T03:45:02.065Z,9.10
2022-11-04T03:46:02.051Z,9.11
2022-11-04T03:47:02.044Z,9.11
2022-11-04T03:48:02.034Z,9.13
2022-11-04T03:49:02.022Z,9.13
2022-11-04T03:50:02.029Z,9.13
2022-11-04T03:51:05.011Z,9.08
2022-11-04T03:52:02.013Z,9.08
2022-11-04T03:53:01.994Z,9.04
2022-11-04T03:54:01.977Z,9.03
2022-11-04T03:55:01.964Z,9.00
2022-11-04T03:56:01.968Z,9.02
2022-11-04T03:57:02.047Z,9.03
2022-11-04T03:58:01.950Z,9.02
2022-11-04T03:59:01.929Z,9.03
2022-11-04T04:00:01.968Z,9.02
2022-11-04T04:01:01.933Z,9.02
2022-11-04T04:02:02.035Z,9.02
2022-11-04T04:03:01.879Z,9.02
2022-11-04T04:04:01.872Z,9.00
2022-11-04T04:05:01.869Z,8.99
2022-11-04T04:06:04.849Z,8.99
2022-11-04T04:07:01.850Z,8.99
2022-11-04T04:08:01.871Z,9.00
2022-11-04T04:09:01.822Z,8.97
2022-11-04T04:10:01.808Z,8.99
2022-11-04T04:11:01.814Z,8.97
2022-11-04T04:12:01.781Z,8.95
2022-11-04T04:13:01.790Z,8.97
2022-11-04T04:14:01.791Z,8.97
2022-11-04T04:15:01.756Z,8.97
2022-11-04T04:16:01.744Z,8.99
2022-11-04T04:17:01.792Z,8.97
2022-11-04T04:18:01.722Z,8.94
2022-11-04T04:19:01.730Z,8.97
2022-11-04T04:20:01.724Z,8.95
2022-11-04T04:21:04.690Z,8.95
2022-11-04T04:22:01.702Z,8.99
2022-11-04T04:23:01.672Z,9.00
2022-11-04T04:24:01.671Z,9.00
2022-11-04T04:25:01.670Z,8.97
2022-11-04T04:26:01.646Z,8.97
2022-11-04T04:27:01.631Z,8.94
2022-11-04T04:28:01.623Z,8.95
2022-11-04T04:29:01.612Z,8.95
2022-11-04T04:30:01.628Z,8.95
2022-11-04T04:31:01.599Z,8.92
2022-11-04T04:32:01.581Z,8.92
2022-11-04T04:33:01.577Z,8.95
2022-11-04T04:34:01.556Z,8.94
2022-11-04T04:35:01.574Z,8.91
2022-11-04T04:36:04.587Z,8.87
2022-11-04T04:37:01.586Z,8.87
2022-11-04T04:38:01.513Z,8.89
2022-11-04T04:39:01.511Z,8.92
2022-11-04T04:40:01.486Z,8.94
2022-11-04T04:41:01.499Z,8.94
2022-11-04T04:42:01.478Z,8.89
2022-11-04T04:43:01.466Z,8.88
2022-11-04T04:44:01.453Z,8.87
2022-11-04T04:45:01.446Z,8.84
2022-11-04T04:46:01.462Z,8.81
2022-11-04T04:47:01.449Z,8.81
2022-11-04T04:48:01.415Z,8.78
2022-11-04T04:49:01.396Z,8.73
2022-11-04T04:50:01.399Z,8.73
2022-11-04T04:51:04.377Z,8.71
2022-11-04T04:52:01.382Z,8.71
2022-11-04T04:53:01.378Z,8.70
2022-11-04T04:54:01.349Z,8.70
2022-11-04T04:55:01.342Z,8.69
2022-11-04T04:56:01.329Z,8.70
2022-11-04T04:57:01.320Z,8.64
2022-11-04T04:58:01.320Z,8.64
2022-11-04T04:59:01.295Z,8.63
2022-11-04T05:00:01.408Z,8.61
2022-11-04T05:01:01.328Z,8.60
2022-11-04T05:02:01.353Z,8.56
2022-11-04T05:03:01.254Z,8.53
2022-11-04T05:04:01.249Z,8.53
2022-11-04T05:05:01.333Z,8.49
2022-11-04T05:06:04.222Z,8.46
2022-11-04T05:07:01.262Z,8.42
2022-11-04T05:08:01.213Z,8.37
2022-11-04T05:09:01.194Z,8.36
2022-11-04T05:10:01.181Z,8.31
2022-11-04T05:11:01.183Z,8.26
2022-11-04T05:12:01.164Z,8.20
2022-11-04T05:13:01.155Z,8.18
2022-11-04T05:14:01.146Z,8.12
2022-11-04T05:15:01.153Z,8.06
2022-11-04T05:16:01.111Z,8.01
2022-11-04T05:17:01.114Z,7.98
2022-11-04T05:18:01.101Z,7.95
2022-11-04T05:19:01.082Z,7.97
2022-11-04T05:20:01.166Z,7.95
2022-11-04T05:21:04.069Z,7.97
2022-11-04T05:22:01.403Z,7.98
2022-11-04T05:23:01.060Z,7.95
2022-11-04T05:24:01.045Z,7.93
2022-11-04T05:25:01.034Z,7.91
2022-11-04T05:26:01.022Z,7.90
2022-11-04T05:27:01.026Z,7.88
2022-11-04T05:28:00.997Z,7.88
2022-11-04T05:29:01.027Z,7.88
2022-11-04T05:30:00.982Z,7.87
2022-11-04T05:31:00.968Z,7.87
2022-11-04T05:32:00.971Z,7.83
2022-11-04T05:33:04.656Z,7.80
2022-11-04T05:34:00.938Z,7.75
2022-11-04T05:35:01.037Z,7.73
2022-11-04T05:36:03.908Z,7.73
2022-11-04T05:37:00.948Z,7.67
2022-11-04T05:38:00.886Z,7.61
2022-11-04T05:39:00.876Z,7.60
2022-11-04T05:40:00.878Z,7.58
2022-11-04T05:41:00.857Z,7.58
2022-11-04T05:42:00.890Z,7.57
2022-11-04T05:43:00.778Z,7.54
2022-11-04T05:44:00.820Z,7.53
2022-11-04T05:45:00.818Z,7.51
2022-11-04T05:46:00.808Z,7.53
2022-11-04T05:47:00.752Z,7.51
2022-11-04T05:48:00.733Z,7.53
2022-11-04T05:49:00.777Z,7.50
2022-11-04T05:50:00.765Z,7.51
2022-11-04T05:51:03.758Z,7.50
2022-11-04T05:52:00.751Z,7.51
2022-11-04T05:53:00.737Z,7.51
2022-11-04T05:54:00.670Z,7.54
2022-11-04T05:55:00.660Z,7.54
2022-11-04T05:56:00.648Z,7.57
2022-11-04T05:57:00.629Z,7.57
2022-11-04T05:58:00.631Z,7.57
2022-11-04T05:59:00.614Z,7.58
2022-11-04T06:00:00.609Z,7.60
2022-11-04T06:01:00.593Z,7.60
2022-11-04T06:02:00.749Z,7.63
2022-11-04T06:03:00.641Z,7.66
2022-11-04T06:04:00.595Z,7.63
2022-11-04T06:05:00.553Z,7.66
2022-11-04T06:06:03.536Z,7.63
2022-11-04T06:07:00.563Z,7.67
2022-11-04T06:08:00.526Z,7.67
2022-11-04T06:09:00.520Z,7.67
2022-11-04T06:10:00.524Z,7.67
2022-11-04T06:11:00.501Z,7.67
2022-11-04T06:12:00.484Z,7.67
2022-11-04T06:13:00.469Z,7.63
2022-11-04T06:14:00.462Z,7.67
2022-11-04T06:15:00.458Z,7.66
2022-11-04T06:16:00.445Z,7.67
2022-11-04T06:17:00.456Z,7.66
2022-11-04T06:18:00.416Z,7.67
2022-11-04T06:19:05.789Z,7.66
2022-11-04T06:20:00.409Z,7.67
2022-11-04T06:21:03.435Z,7.63
2022-11-04T06:22:00.404Z,7.60
2022-11-04T06:23:00.367Z,7.58
2022-11-04T06:24:00.359Z,7.57
2022-11-04T06:25:00.373Z,7.56
2022-11-04T06:26:00.336Z,7.56
2022-11-04T06:27:00.327Z,7.53
2022-11-04T06:28:00.309Z,7.53
2022-11-04T06:29:00.308Z,7.51
2022-11-04T06:30:00.325Z,7.51
2022-11-04T06:31:00.290Z,7.51
2022-11-04T06:32:00.282Z,7.50
2022-11-04T06:33:00.270Z,7.48
2022-11-04T06:34:00.258Z,7.48
2022-11-04T06:35:00.268Z,7.47
2022-11-04T06:36:03.231Z,7.43
2022-11-04T06:37:00.281Z,7.39
2022-11-04T06:38:00.222Z,7.36
2022-11-04T06:39:04.707Z,7.35
2022-11-04T06:40:00.221Z,7.33
2022-11-04T06:41:00.288Z,7.33
2022-11-04T06:42:02.572Z,7.35
2022-11-04T06:43:00.170Z,7.35
2022-11-04T06:44:00.190Z,7.36
2022-11-04T06:45:00.161Z,7.36
2022-11-04T06:46:00.138Z,7.36
2022-11-04T06:47:00.124Z,7.36
2022-11-04T06:48:00.122Z,7.36
2022-11-04T06:49:00.107Z,7.35
2022-11-04T06:50:00.096Z,7.36
2022-11-04T06:51:03.078Z,7.36
2022-11-04T06:52:00.126Z,7.38
2022-11-04T06:53:00.076Z,7.36
2022-11-04T06:54:00.045Z,7.36
2022-11-04T06:55:00.048Z,7.35
2022-11-04T06:56:00.034Z,7.33
2022-11-04T06:57:00.034Z,7.32
2022-11-04T06:58:00.029Z,7.33
2022-11-04T06:58:59.996Z,7.32
2022-11-04T06:59:59.991Z,7.33
2022-11-04T07:01:00.091Z,7.32
2022-11-04T07:02:01.029Z,7.31
2022-11-04T07:02:59.949Z,7.31
2022-11-04T07:03:59.949Z,7.32
2022-11-04T07:04:59.952Z,7.31
2022-11-04T07:06:02.950Z,7.31
2022-11-04T07:06:59.976Z,7.29
2022-11-04T07:07:59.908Z,7.29
2022-11-04T07:08:59.903Z,7.33
2022-11-04T07:09:59.887Z,7.33
2022-11-04T07:10:59.868Z,7.33
2022-11-04T07:11:59.858Z,7.35
2022-11-04T07:12:59.868Z,7.36
2022-11-04T07:13:59.850Z,7.38
2022-11-04T07:14:59.839Z,7.40
2022-11-04T07:15:59.827Z,7.43
2022-11-04T07:16:59.809Z,7.45
2022-11-04T07:17:59.892Z,7.45
2022-11-04T07:18:59.790Z,7.48
2022-11-04T07:19:59.790Z,7.48
2022-11-04T07:21:08.630Z,7.53
2022-11-04T07:22:01.757Z,7.53
2022-11-04T07:22:59.760Z,7.56
2022-11-04T07:23:59.766Z,7.58
2022-11-04T07:24:59.730Z,7.58
2022-11-04T07:25:59.726Z,7.61
2022-11-04T07:26:59.711Z,7.60
2022-11-04T07:28:02.272Z,7.60
2022-11-04T07:28:59.690Z,7.58
2022-11-04T07:29:59.685Z,7.60
2022-11-04T07:30:59.670Z,7.63
2022-11-04T07:31:59.675Z,7.66
2022-11-04T07:32:59.662Z,7.67
2022-11-04T07:33:59.653Z,7.72
2022-11-04T07:34:59.672Z,7.73
2022-11-04T07:36:02.625Z,7.76
2022-11-04T07:36:59.641Z,7.79
2022-11-04T07:37:59.616Z,7.80
2022-11-04T07:38:59.592Z,7.82
2022-11-04T07:39:59.581Z,7.83
2022-11-04T07:40:59.571Z,7.85
2022-11-04T07:41:59.897Z,7.87
2022-11-04T07:42:59.549Z,7.87
2022-11-04T07:43:59.542Z,7.90
2022-11-04T07:44:59.527Z,7.88
2022-11-04T07:45:59.585Z,7.91
2022-11-04T07:46:59.519Z,7.95
2022-11-04T07:47:59.537Z,7.97
2022-11-04T07:48:59.515Z,7.97
2022-11-04T07:49:59.537Z,8.01
2022-11-04T07:51:03.467Z,8.01
2022-11-04T07:51:59.480Z,8.03
2022-11-04T07:52:59.446Z,8.05
2022-11-04T07:53:59.474Z,8.06
2022-11-04T07:54:59.428Z,8.09
2022-11-04T07:55:59.419Z,8.08
2022-11-04T07:56:59.414Z,8.10
2022-11-04T07:57:59.417Z,8.10
2022-11-04T07:58:59.399Z,8.15
2022-11-04T07:59:59.392Z,8.18
2022-11-04T08:00:59.365Z,8.23
2022-11-04T08:01:59.472Z,8.27
2022-11-04T08:02:59.412Z,8.31
2022-11-04T08:03:59.334Z,8.36
2022-11-04T08:04:59.327Z,8.44
2022-11-04T08:06:02.331Z,8.46
2022-11-04T08:06:59.340Z,8.49
2022-11-04T08:07:59.297Z,8.52
2022-11-04T08:08:59.331Z,8.52
2022-11-04T08:09:59.279Z,8.56
2022-11-04T08:10:59.269Z,8.60
2022-11-04T08:11:59.251Z,8.63
2022-11-04T08:12:59.285Z,8.67
2022-11-04T08:13:59.261Z,8.71
2022-11-04T08:14:59.223Z,8.73
2022-11-04T08:15:59.209Z,8.78
2022-11-04T08:16:59.202Z,8.82
2022-11-04T08:17:59.196Z,8.82
2022-11-04T08:18:59.186Z,8.88
2022-11-04T08:19:59.185Z,8.91
2022-11-04T08:21:02.165Z,8.95
2022-11-04T08:21:59.177Z,8.95
2022-11-04T08:22:59.147Z,8.99
2022-11-04T08:23:59.134Z,9.04
2022-11-04T08:24:59.325Z,9.06
2022-11-04T08:25:59.115Z,9.10
2022-11-04T08:26:59.102Z,9.13
2022-11-04T08:28:01.053Z,9.16
2022-11-04T08:28:59.108Z,9.18
2022-11-04T08:29:59.092Z,9.21
2022-11-04T08:30:59.067Z,9.21
2022-11-04T08:31:59.056Z,9.25
2022-11-04T08:32:59.038Z,9.28
2022-11-04T08:33:59.048Z,9.32
2022-11-04T08:34:59.015Z,9.34
2022-11-04T08:36:02.010Z,9.37
2022-11-04T08:36:59.042Z,9.39
2022-11-04T08:37:59.005Z,9.43
2022-11-04T08:38:58.984Z,9.44
2022-11-04T08:39:59.968Z,9.44
2022-11-04T08:41:00.294Z,9.46
2022-11-04T08:41:59.007Z,9.50
2022-11-04T08:42:58.936Z,9.54
2022-11-04T08:43:58.925Z,9.56
2022-11-04T08:44:58.906Z,9.59
2022-11-04T08:45:58.915Z,9.59
2022-11-04T08:46:58.900Z,9.64
2022-11-04T08:48:02.732Z,9.65
2022-11-04T08:48:58.878Z,9.68
2022-11-04T08:49:59.908Z,9.72
2022-11-04T08:51:01.857Z,9.76
2022-11-04T08:51:58.859Z,9.74
2022-11-04T08:52:58.830Z,9.77
2022-11-04T08:53:59.318Z,9.79
2022-11-04T08:54:58.810Z,9.82
2022-11-04T08:55:58.809Z,9.82
2022-11-04T08:56:58.792Z,9.82
2022-11-04T08:57:58.792Z,9.86
2022-11-04T08:58:58.771Z,9.89
2022-11-04T08:59:58.770Z,9.91
2022-11-04T09:00:58.772Z,9.94
2022-11-04T09:01:58.818Z,9.95
2022-11-04T09:02:58.725Z,9.98
2022-11-04T09:03:58.833Z,10.01
2022-11-04T09:04:58.714Z,10.04
2022-11-04T09:06:01.723Z,10.04
2022-11-04T09:06:59.299Z,10.05
2022-11-04T09:07:58.691Z,10.09
2022-11-04T09:08:58.670Z,10.10
2022-11-04T09:09:58.651Z,10.15
2022-11-04T09:10:58.637Z,10.17
2022-11-04T09:11:58.670Z,10.19
2022-11-04T09:12:58.633Z,10.20
2022-11-04T09:13:58.623Z,10.23
2022-11-04T09:14:58.604Z,10.30
2022-11-04T09:15:58.597Z,10.31
2022-11-04T09:16:58.592Z,10.30
2022-11-04T09:17:58.573Z,10.28
2022-11-04T09:18:58.576Z,10.31
2022-11-04T09:19:58.558Z,10.33
2022-11-04T09:21:01.551Z,10.38
2022-11-04T09:21:58.545Z,10.41
2022-11-04T09:22:58.565Z,10.48
2022-11-04T09:23:58.508Z,10.51
2022-11-04T09:24:58.495Z,10.57
2022-11-04T09:25:58.486Z,10.63
2022-11-04T09:26:58.505Z,10.67
2022-11-04T09:27:58.472Z,10.74
2022-11-04T09:28:58.516Z,10.75
2022-11-04T09:29:58.454Z,10.78
2022-11-04T09:30:58.442Z,10.78
2022-11-04T09:31:58.428Z,10.76
2022-11-04T09:32:58.422Z,10.78
2022-11-04T09:33:58.476Z,10.79
2022-11-04T09:34:58.400Z,10.81
2022-11-04T09:36:01.444Z,10.86
2022-11-04T09:36:58.395Z,10.92
2022-11-04T09:37:58.370Z,10.96
2022-11-04T09:38:58.367Z,10.94
2022-11-04T09:39:58.341Z,10.94
2022-11-04T09:40:58.332Z,10.99
2022-11-04T09:41:58.357Z,11.00
2022-11-04T09:42:58.308Z,11.04
2022-11-04T09:43:58.302Z,11.07
2022-11-04T09:45:59.290Z,11.04
2022-11-04T09:46:58.301Z,11.02
2022-11-04T09:47:58.263Z,11.05
2022-11-04T09:48:58.254Z,11.11
2022-11-04T09:49:58.241Z,11.14
2022-11-04T09:51:01.233Z,11.18
2022-11-04T09:51:58.236Z,11.25
2022-11-04T09:52:58.218Z,11.29
2022-11-04T09:53:58.219Z,11.33
2022-11-04T09:54:58.205Z,11.45
2022-11-04T09:55:58.175Z,11.51
2022-11-04T09:56:58.153Z,11.52
2022-11-04T09:57:58.281Z,11.52
2022-11-04T09:58:58.156Z,11.57
2022-11-04T09:59:58.137Z,11.57
2022-11-04T10:00:58.212Z,11.55
2022-11-04T10:01:58.221Z,11.62
2022-11-04T10:02:58.108Z,11.62
2022-11-04T10:03:58.095Z,11.65
2022-11-04T10:04:58.099Z,11.62
2022-11-04T10:06:01.080Z,11.59
2022-11-04T10:06:58.077Z,11.52
2022-11-04T10:07:58.055Z,11.47
2022-11-04T10:08:58.070Z,11.48
2022-11-04T10:09:58.029Z,11.47
2022-11-04T10:10:58.031Z,11.51
2022-11-04T10:11:58.015Z,11.60
2022-11-04T10:12:57.997Z,11.69
2022-11-04T10:13:57.990Z,11.73
2022-11-04T10:14:57.978Z,11.83
2022-11-04T10:15:57.978Z,11.83
2022-11-04T10:16:57.950Z,11.83
2022-11-04T10:17:57.950Z,11.84
2022-11-04T10:18:57.943Z,11.84
2022-11-04T10:19:57.952Z,11.81
2022-11-04T10:21:00.909Z,11.87
2022-11-04T10:21:57.929Z,11.95
2022-11-04T10:22:57.901Z,12.04
2022-11-04T10:23:57.880Z,12.13
2022-11-04T10:24:57.878Z,12.20
2022-11-04T10:25:57.863Z,12.28
2022-11-04T10:27:00.745Z,12.24
2022-11-04T10:27:57.838Z,12.13
2022-11-04T10:28:57.831Z,12.09
2022-11-04T10:29:57.825Z,12.10
2022-11-04T10:30:57.890Z,12.12
2022-11-04T10:31:57.803Z,12.18
2022-11-04T10:32:57.843Z,12.18
2022-11-04T10:33:57.763Z,12.15
2022-11-04T10:34:57.775Z,12.21
2022-11-04T10:36:00.754Z,12.20
2022-11-04T10:36:57.763Z,12.15
2022-11-04T10:37:57.733Z,12.09
2022-11-04T10:38:57.724Z,12.02
2022-11-04T10:39:57.714Z,11.97
2022-11-04T10:41:00.499Z,11.90
2022-11-04T10:41:57.695Z,11.90
2022-11-04T10:42:57.691Z,11.90
2022-11-04T10:43:57.670Z,11.90
2022-11-04T10:44:57.654Z,11.91
2022-11-04T10:45:57.657Z,11.99
2022-11-04T10:46:57.647Z,11.95
2022-11-04T10:47:57.635Z,11.95
2022-11-04T10:48:57.623Z,11.97
2022-11-04T10:50:27.048Z,11.99
2022-11-04T10:51:01.599Z,12.00
2022-11-04T10:51:57.608Z,12.00
2022-11-04T10:52:57.577Z,12.02
2022-11-04T10:53:57.649Z,12.02
2022-11-04T10:54:57.559Z,12.02
2022-11-04T10:55:57.551Z,12.02
2022-11-04T10:56:57.664Z,12.00
2022-11-04T10:57:57.527Z,11.99
2022-11-04T10:58:57.519Z,11.99
2022-11-04T10:59:57.508Z,11.99
2022-11-04T11:00:57.721Z,12.00
2022-11-04T11:01:57.619Z,12.02
2022-11-04T11:02:57.482Z,12.03
2022-11-04T11:03:57.469Z,12.03
2022-11-04T11:04:57.460Z,12.03
2022-11-04T11:06:00.453Z,12.00
2022-11-04T11:06:57.452Z,12.00
2022-11-04T11:07:57.439Z,11.97
2022-11-04T11:08:57.410Z,11.94
2022-11-04T11:09:57.401Z,11.88
2022-11-04T11:10:57.403Z,11.88
2022-11-04T11:11:57.385Z,11.95
2022-11-04T11:12:57.371Z,12.07
2022-11-04T11:13:57.362Z,12.12
2022-11-04T11:14:57.345Z,12.25
2022-11-04T11:15:57.347Z,12.32
2022-11-04T11:16:57.394Z,12.39
2022-11-04T11:17:57.397Z,12.42
2022-11-04T11:18:57.322Z,12.50
2022-11-04T11:19:57.304Z,12.58
2022-11-04T11:21:00.357Z,12.64
2022-11-04T11:21:57.302Z,12.75
2022-11-04T11:23:01.934Z,12.80
2022-11-04T11:23:57.257Z,12.90
2022-11-04T11:24:57.243Z,12.86
2022-11-04T11:25:57.237Z,12.83
2022-11-04T11:26:58.203Z,12.80
2022-11-04T11:27:57.210Z,12.80
2022-11-04T11:28:59.445Z,12.80
2022-11-04T11:29:57.310Z,12.80
2022-11-04T11:30:57.187Z,12.78
2022-11-04T11:31:57.183Z,12.64
2022-11-04T11:32:57.200Z,12.53
2022-11-04T11:33:57.204Z,12.46
2022-11-04T11:34:57.141Z,12.45
2022-11-04T11:36:00.147Z,12.45
2022-11-04T11:36:57.136Z,12.45
2022-11-04T11:37:57.110Z,12.47
2022-11-04T11:38:57.114Z,12.50
2022-11-04T11:39:57.081Z,12.54
2022-11-04T11:41:23.310Z,12.55
2022-11-04T11:41:58.085Z,12.57
2022-11-04T11:42:57.060Z,12.50
2022-11-04T11:43:57.250Z,12.47
2022-11-04T11:44:57.044Z,12.36
2022-11-04T11:45:57.031Z,12.28
2022-11-04T11:46:57.082Z,12.28
2022-11-04T11:47:57.016Z,12.27
2022-11-04T11:48:57.038Z,12.22
2022-11-04T11:49:57.933Z,12.21
2022-11-04T11:50:59.980Z,12.20
2022-11-04T11:51:56.986Z,12.22
2022-11-04T11:52:56.943Z,12.24
2022-11-04T11:53:56.945Z,12.24
2022-11-04T11:54:56.956Z,12.25
2022-11-04T11:55:56.944Z,12.28
2022-11-04T11:57:13.413Z,12.31
2022-11-04T12:01:05.207Z,12.37
2022-11-04T12:01:57.983Z,12.37
2022-11-04T12:02:57.265Z,12.39
2022-11-04T12:09:57.777Z,12.55
2022-11-04T12:10:56.767Z,12.58
2022-11-04T12:11:57.069Z,12.64
2022-11-04T12:12:56.747Z,12.64
2022-11-04T12:13:56.756Z,12.67
2022-11-04T12:14:56.720Z,12.70
2022-11-04T12:15:56.712Z,12.76
2022-11-04T12:16:56.699Z,12.80
2022-11-04T12:17:56.703Z,12.82
2022-11-04T12:18:56.708Z,12.85
2022-11-04T12:19:56.677Z,12.85
2022-11-04T12:20:59.707Z,12.85
2022-11-04T12:21:56.687Z,12.82
2022-11-04T12:22:56.641Z,12.85
2022-11-04T12:23:56.652Z,12.82
2022-11-04T12:24:56.619Z,12.85
2022-11-04T12:25:56.613Z,12.79
2022-11-04T12:26:56.602Z,12.78
2022-11-04T12:27:56.593Z,12.79
2022-11-04T12:28:56.573Z,12.82
2022-11-04T12:29:56.600Z,12.83
2022-11-04T12:30:56.615Z,12.85
2022-11-04T12:31:56.555Z,12.79
2022-11-04T12:32:56.542Z,12.80
2022-11-04T12:33:56.528Z,12.80
2022-11-04T12:34:56.570Z,12.82
2022-11-04T12:35:59.532Z,12.83
2022-11-04T12:36:56.545Z,12.82
2022-11-04T12:37:56.484Z,12.83
2022-11-04T12:38:56.473Z,12.83
2022-11-04T12:39:56.498Z,12.86
2022-11-04T12:41:27.718Z,12.87
2022-11-04T12:42:57.457Z,12.90
2022-11-04T12:43:56.428Z,12.91
2022-11-04T12:44:56.406Z,12.94
2022-11-04T12:45:56.402Z,12.93
2022-11-04T12:46:56.395Z,12.90
2022-11-04T12:47:56.409Z,12.86
2022-11-04T12:48:59.041Z,12.86
2022-11-04T12:49:56.372Z,12.86
2022-11-04T12:50:59.349Z,12.83
2022-11-04T12:51:56.364Z,12.87
2022-11-04T12:52:56.328Z,12.86
2022-11-04T12:53:56.320Z,12.85
2022-11-04T12:54:56.441Z,12.83
2022-11-04T12:55:56.305Z,12.83
2022-11-04T12:56:56.289Z,12.83
2022-11-04T12:57:56.284Z,12.80
2022-11-04T12:58:56.272Z,12.76
2022-11-04T12:59:56.253Z,12.75
2022-11-04T13:00:59.425Z,12.78
2022-11-04T13:01:56.463Z,12.79
2022-11-04T13:02:56.233Z,12.78
2022-11-04T13:03:56.237Z,12.83
2022-11-04T13:04:56.213Z,12.87
2022-11-04T13:05:59.214Z,12.90
2022-11-04T13:06:56.235Z,12.95
2022-11-04T13:07:56.185Z,12.95
2022-11-04T13:08:56.168Z,12.95
2022-11-04T13:09:56.160Z,12.93
2022-11-04T13:10:56.149Z,12.83
2022-11-04T13:11:56.189Z,12.73
2022-11-04T13:12:56.129Z,12.61
2022-11-04T13:14:01.396Z,12.54
2022-11-04T13:14:56.106Z,12.50
2022-11-04T13:15:56.098Z,12.46
2022-11-04T13:16:56.100Z,12.43
2022-11-04T13:17:56.097Z,12.40
2022-11-04T13:18:56.077Z,12.39
2022-11-04T13:19:56.051Z,12.39
2022-11-04T13:21:02.546Z,12.39
2022-11-04T13:21:56.052Z,12.40
2022-11-04T13:23:01.920Z,12.39
2022-11-04T13:23:56.010Z,12.37
2022-11-04T13:24:56.005Z,12.36